Terminal Aerodrome Forecast
Issued by NWS

Home | Current Version | Previous Version | Graphics & Text | Print | Product List | Glossary On
Versions: 1 2 3 4 5 6 7 8 9 10 11 12 13 14 15 16 17 18 19 20 21 22 23 24 25 26
155
FTUS43 KLOT 202055 AAA
TAFORD
TAF AMD
KORD 202055Z 2021/2124 19010G16KT P6SM SCT250
     FM210000 18008KT P6SM SCT250
     FM211500 18012G18KT P6SM BKN200
     FM211800 18014G24KT P6SM SCT080 BKN150=

USA.gov is the U.S. government's official web portal to all federal, state and local government web resources and services.